createdAt,value
2019-02-27T00:02:17.767Z,83.19
2019-02-27T00:04:49.226Z,83.75
2019-02-27T00:07:21.080Z,81.73
2019-02-27T00:09:53.034Z,82.67
2019-02-27T00:12:25.773Z,83.29
2019-02-27T00:14:57.277Z,82.64
2019-02-27T00:17:28.659Z,83.26
2019-02-27T00:20:04.073Z,82.93
2019-02-27T00:22:34.486Z,82.46
2019-02-27T00:25:05.851Z,82.39
2019-02-27T00:27:37.286Z,82.79
2019-02-27T00:30:10.571Z,82.58
2019-02-27T00:32:42.713Z,82.69
2019-02-27T00:35:14.117Z,82.02
2019-02-27T00:37:45.564Z,81.89
2019-02-27T00:40:16.883Z,81.54
2019-02-27T00:42:48.191Z,80.89
2019-02-27T00:45:19.618Z,81.01
2019-02-27T00:47:53.308Z,82.01
2019-02-27T00:50:24.158Z,81.68
2019-02-27T00:52:55.489Z,81.76
2019-02-27T00:55:26.798Z,82.42
2019-02-27T00:57:58.223Z,82.87
2019-02-27T01:00:29.650Z,82.40
2019-02-27T01:03:01.079Z,81.36
2019-02-27T01:05:32.395Z,81.26
2019-02-27T01:08:03.712Z,80.93
2019-02-27T01:10:35.031Z,80.49
2019-02-27T01:13:06.338Z,81.81
2019-02-27T01:15:37.760Z,81.26
2019-02-27T01:18:09.139Z,81.48
2019-02-27T01:20:45.551Z,81.58
2019-02-27T01:23:13.639Z,81.42
2019-02-27T01:25:46.083Z,81.25
2019-02-27T01:28:17.526Z,80.73
2019-02-27T01:30:48.968Z,81.57
2019-02-27T01:33:20.296Z,81.00
2019-02-27T01:35:52.410Z,80.66
2019-02-27T01:38:23.949Z,80.09
2019-02-27T01:40:55.320Z,79.28
2019-02-27T01:43:26.626Z,80.10
2019-02-27T01:45:58.938Z,80.33
2019-02-27T01:48:30.358Z,80.88
2019-02-27T01:51:01.695Z,81.28
2019-02-27T01:53:33.076Z,80.74
2019-02-27T01:56:04.514Z,80.91
2019-02-27T01:58:36.099Z,80.95
2019-02-27T02:01:07.338Z,80.46
2019-02-27T02:03:39.065Z,81.27
2019-02-27T02:06:10.543Z,80.96
2019-02-27T02:08:41.954Z,81.20
2019-02-27T02:11:13.408Z,81.22
2019-02-27T02:13:56.912Z,81.44
2019-02-27T02:16:34.119Z,80.87
2019-02-27T02:19:22.438Z,80.87
2019-02-27T02:22:14.795Z,80.94
2019-02-27T02:25:13.422Z,80.72
2019-02-27T02:28:22.801Z,80.10
2019-02-27T02:31:04.933Z,79.94
2019-02-27T02:33:54.506Z,80.71
2019-02-27T02:36:46.459Z,80.02
2019-02-27T02:39:30.079Z,79.81
2019-02-27T02:42:07.263Z,79.35
2019-02-27T02:44:44.193Z,79.36
2019-02-27T02:47:36.506Z,79.43
2019-02-27T02:50:17.393Z,79.73
2019-02-27T02:52:59.428Z,79.05
2019-02-27T02:55:49.325Z,79.54
2019-02-27T02:58:26.941Z,77.90
2019-02-27T03:01:07.188Z,79.03
2019-02-27T03:03:44.464Z,79.33
2019-02-27T03:06:24.663Z,79.50
2019-02-27T03:09:05.174Z,79.21
2019-02-27T03:11:54.157Z,80.14
2019-02-27T03:14:54.353Z,80.40
2019-02-27T03:17:45.034Z,79.59
2019-02-27T03:20:51.760Z,80.35
2019-02-27T03:23:39.327Z,81.25
2019-02-27T03:26:22.848Z,80.42
2019-02-27T03:29:21.654Z,80.87
2019-02-27T03:32:17.043Z,79.77
2019-02-27T03:35:06.588Z,80.33
2019-02-27T03:37:48.142Z,81.18
2019-02-27T03:40:36.216Z,80.52
2019-02-27T03:43:22.457Z,79.79
2019-02-27T03:45:56.952Z,80.40
2019-02-27T03:48:46.489Z,79.85
2019-02-27T03:51:29.700Z,80.28
2019-02-27T03:54:12.927Z,80.49
2019-02-27T03:56:56.249Z,79.77
2019-02-27T03:59:50.520Z,79.77
2019-02-27T04:02:27.915Z,79.52
2019-02-27T04:05:20.122Z,80.56
2019-02-27T04:07:52.436Z,80.68
2019-02-27T04:10:23.519Z,80.56
2019-02-27T04:12:54.830Z,80.08
2019-02-27T04:15:26.256Z,81.18
2019-02-27T04:17:56.604Z,80.50
2019-02-27T04:20:27.997Z,79.88
2019-02-27T04:22:59.465Z,80.38
2019-02-27T04:25:31.385Z,79.58
2019-02-27T04:28:04.907Z,79.10
2019-02-27T04:30:36.361Z,79.83
2019-02-27T04:33:08.312Z,79.74
2019-02-27T04:35:40.217Z,80.10
2019-02-27T04:38:11.815Z,79.65
2019-02-27T04:40:44.170Z,78.99
2019-02-27T04:43:16.338Z,79.95
2019-02-27T04:45:47.715Z,79.66
2019-02-27T04:48:19.057Z,79.70
2019-02-27T04:50:50.506Z,78.79
2019-02-27T04:53:21.843Z,79.21
2019-02-27T04:55:53.090Z,79.10
2019-02-27T04:58:24.420Z,79.67
2019-02-27T05:00:58.922Z,78.43
2019-02-27T05:03:28.884Z,80.12
2019-02-27T05:06:00.263Z,80.09
2019-02-27T05:08:31.690Z,79.61
2019-02-27T05:11:03.070Z,80.30
2019-02-27T05:13:34.608Z,79.54
2019-02-27T05:16:06.151Z,80.67
2019-02-27T05:18:37.826Z,79.13
2019-02-27T05:21:09.178Z,79.96
2019-02-27T05:23:40.602Z,79.84
2019-02-27T05:26:12.057Z,80.61
2019-02-27T05:28:43.517Z,78.78
2019-02-27T05:31:18.221Z,80.25
2019-02-27T05:33:48.022Z,79.07
2019-02-27T05:36:19.497Z,79.21
2019-02-27T05:38:50.875Z,78.25
2019-02-27T05:41:22.430Z,78.02
2019-02-27T05:43:53.762Z,77.97
2019-02-27T05:46:25.187Z,77.63
2019-02-27T05:48:56.640Z,77.39
2019-02-27T05:51:28.084Z,76.16
2019-02-27T05:53:59.470Z,75.51
2019-02-27T05:56:30.883Z,75.25
2019-02-27T05:59:02.278Z,76.59
2019-02-27T06:01:37.726Z,76.18
2019-02-27T06:04:06.719Z,76.04
2019-02-27T06:06:38.123Z,76.04
2019-02-27T06:09:10.489Z,75.00
2019-02-27T06:11:42.192Z,76.02
2019-02-27T06:14:13.518Z,76.31
2019-02-27T06:16:44.839Z,75.10
2019-02-27T06:19:16.281Z,74.75
2019-02-27T06:21:47.609Z,75.31
2019-02-27T06:24:18.978Z,74.71
2019-02-27T06:26:50.357Z,74.32
2019-02-27T06:29:23.940Z,74.15
2019-02-27T06:31:54.968Z,74.37
2019-02-27T06:34:26.434Z,74.01
2019-02-27T06:36:57.745Z,73.17
2019-02-27T06:39:34.115Z,73.93
2019-02-27T06:42:02.795Z,73.01
2019-02-27T06:44:36.598Z,74.15
2019-02-27T06:47:07.323Z,75.22
2019-02-27T06:49:38.728Z,74.02
2019-02-27T06:52:10.150Z,74.74
2019-02-27T06:54:41.524Z,74.20
2019-02-27T06:57:12.895Z,73.49
2019-02-27T06:59:44.313Z,74.68
2019-02-27T07:02:15.672Z,75.88
2019-02-27T07:04:46.983Z,74.72
2019-02-27T07:07:18.442Z,75.71
2019-02-27T07:09:49.916Z,74.90
2019-02-27T07:12:21.819Z,73.31
2019-02-27T07:14:53.704Z,73.55
2019-02-27T07:17:25.406Z,74.73
2019-02-27T07:19:57.014Z,73.27
2019-02-27T07:22:28.375Z,73.10
2019-02-27T07:24:59.853Z,73.37
2019-02-27T07:27:31.919Z,72.85
2019-02-27T07:30:04.863Z,73.07
2019-02-27T07:32:36.666Z,72.38
2019-02-27T07:35:10.080Z,71.87
2019-02-27T07:37:41.446Z,71.81
2019-02-27T07:40:19.116Z,71.28
2019-02-27T07:42:50.457Z,70.08
2019-02-27T07:45:23.064Z,68.03
2019-02-27T07:47:54.461Z,67.98
2019-02-27T07:50:25.771Z,68.46
2019-02-27T07:52:57.268Z,68.90
2019-02-27T07:55:28.654Z,67.67
2019-02-27T07:58:00.006Z,66.36
2019-02-27T08:00:31.493Z,65.69
2019-02-27T08:03:02.851Z,66.01
2019-02-27T08:05:34.180Z,65.00
2019-02-27T08:08:05.651Z,63.24
2019-02-27T08:10:37.538Z,64.34
2019-02-27T08:13:09.148Z,64.43
2019-02-27T08:15:40.624Z,65.06
2019-02-27T08:18:12.017Z,64.73
2019-02-27T08:20:43.459Z,64.42
2019-02-27T08:23:15.644Z,65.27
2019-02-27T08:25:47.238Z,65.55
2019-02-27T08:28:18.578Z,67.74
2019-02-27T08:30:49.956Z,67.95
2019-02-27T08:33:21.173Z,67.68
2019-02-27T08:35:52.822Z,68.30
2019-02-27T08:38:24.181Z,68.64
2019-02-27T08:40:58.286Z,68.69
2019-02-27T08:43:30.441Z,68.84
2019-02-27T08:46:02.476Z,67.96
2019-02-27T08:48:34.788Z,68.52
2019-02-27T08:51:08.588Z,68.63
2019-02-27T08:53:39.210Z,67.98
2019-02-27T08:56:12.447Z,66.43
2019-02-27T08:58:43.669Z,68.04
2019-02-27T09:01:15.090Z,67.95
2019-02-27T09:03:46.383Z,67.98
2019-02-27T09:06:18.678Z,68.10
2019-02-27T09:08:50.270Z,67.16
2019-02-27T09:11:21.621Z,65.84
2019-02-27T09:13:52.853Z,64.87
2019-02-27T09:16:26.112Z,63.47
2019-02-27T09:18:57.323Z,63.33
2019-02-27T09:21:28.775Z,63.62
2019-02-27T09:24:00.439Z,61.80
2019-02-27T09:26:35.993Z,62.22
2019-02-27T09:29:05.787Z,63.94
2019-02-27T09:31:38.585Z,62.85
2019-02-27T09:34:10.136Z,64.09
2019-02-27T09:36:43.305Z,64.63
2019-02-27T09:39:14.547Z,62.10
2019-02-27T09:41:46.948Z,62.28
2019-02-27T09:44:18.573Z,62.65
2019-02-27T09:46:52.330Z,62.78
2019-02-27T09:49:22.934Z,63.15
2019-02-27T09:51:56.380Z,63.34
2019-02-27T09:54:28.325Z,62.87
2019-02-27T09:57:02.122Z,61.93
2019-02-27T09:59:32.638Z,62.50
2019-02-27T10:02:06.281Z,63.56
2019-02-27T10:04:37.247Z,64.22
2019-02-27T10:07:08.563Z,63.85
2019-02-27T10:09:40.454Z,64.10
2019-02-27T10:12:11.202Z,65.43
2019-02-27T10:14:42.546Z,67.24
2019-02-27T10:17:13.870Z,67.14
2019-02-27T10:19:45.330Z,66.80
2019-02-27T10:22:17.643Z,65.56
2019-02-27T10:24:49.690Z,64.78
2019-02-27T10:27:21.112Z,63.40
2019-02-27T10:29:52.412Z,62.41
2019-02-27T10:32:23.921Z,61.88
2019-02-27T10:34:55.367Z,59.72
2019-02-27T10:37:26.716Z,58.29
2019-02-27T10:39:58.157Z,60.75
2019-02-27T10:42:29.529Z,58.61
2019-02-27T10:45:00.861Z,58.37
2019-02-27T10:47:33.663Z,54.92
2019-02-27T10:50:08.033Z,56.02
2019-02-27T10:52:39.336Z,56.39
2019-02-27T10:55:14.236Z,56.94
2019-02-27T10:57:46.390Z,56.94
2019-02-27T11:00:29.467Z,58.55
2019-02-27T11:03:01.858Z,59.44
2019-02-27T11:05:37.656Z,60.69
2019-02-27T11:08:08.995Z,60.69
2019-02-27T11:10:40.265Z,59.42
2019-02-27T11:13:11.700Z,59.30
2019-02-27T11:15:44.673Z,58.84
2019-02-27T11:18:16.166Z,57.05
2019-02-27T11:20:47.600Z,57.43
2019-02-27T11:23:19.029Z,56.67
2019-02-27T11:25:50.378Z,57.29
2019-02-27T11:28:21.723Z,57.35
2019-02-27T11:30:53.164Z,57.85
2019-02-27T11:33:25.897Z,56.11
2019-02-27T11:35:57.636Z,57.51
2019-02-27T11:38:28.881Z,57.34
2019-02-27T11:41:00.235Z,57.72
2019-02-27T11:43:31.542Z,56.70
2019-02-27T11:46:03.017Z,57.16
2019-02-27T11:48:34.462Z,57.72
2019-02-27T11:51:05.786Z,56.94
2019-02-27T11:53:38.460Z,57.34
2019-02-27T11:56:09.939Z,57.06
2019-02-27T11:58:41.389Z,56.67
2019-02-27T12:01:12.841Z,57.16
2019-02-27T12:03:46.021Z,57.36
2019-02-27T12:06:17.267Z,56.59
2019-02-27T12:08:48.412Z,57.44
2019-02-27T12:11:19.741Z,56.93
2019-02-27T12:13:51.120Z,55.41
2019-02-27T12:16:22.342Z,56.06
2019-02-27T12:18:53.701Z,57.13
2019-02-27T12:21:25.615Z,56.31
2019-02-27T12:23:57.832Z,55.70
2019-02-27T12:26:29.291Z,56.36
2019-02-27T12:29:00.532Z,58.08
2019-02-27T12:31:31.972Z,57.44
2019-02-27T12:34:03.441Z,56.98
2019-02-27T12:36:34.794Z,56.36
2019-02-27T12:39:06.727Z,57.14
2019-02-27T12:41:37.394Z,57.46
2019-02-27T12:44:08.509Z,56.81
2019-02-27T12:46:39.767Z,57.62
2019-02-27T12:49:11.068Z,57.45
2019-02-27T12:51:42.350Z,58.58
2019-02-27T12:54:13.717Z,57.77
2019-02-27T12:56:45.041Z,58.58
2019-02-27T12:59:16.414Z,58.11
2019-02-27T13:01:50.788Z,57.56
2019-02-27T13:04:20.830Z,58.55
2019-02-27T13:06:53.308Z,58.04
2019-02-27T13:09:25.306Z,58.92
2019-02-27T13:11:56.134Z,57.78
2019-02-27T13:14:27.229Z,58.11
2019-02-27T13:16:58.672Z,58.22
2019-02-27T13:19:30.030Z,58.48
2019-02-27T13:22:01.257Z,57.98
2019-02-27T13:24:32.628Z,57.84
2019-02-27T13:27:08.986Z,58.25
2019-02-27T13:29:36.963Z,59.06
2019-02-27T13:32:08.305Z,59.09
2019-02-27T13:34:39.628Z,59.08
2019-02-27T13:37:11.135Z,59.25
2019-02-27T13:39:42.445Z,59.84
2019-02-27T13:42:18.408Z,60.11
2019-02-27T13:44:47.089Z,60.58
2019-02-27T13:47:18.569Z,60.90
2019-02-27T13:49:49.921Z,60.39
2019-02-27T13:52:21.330Z,61.03
2019-02-27T13:54:52.798Z,61.60
2019-02-27T13:57:25.698Z,61.65
2019-02-27T13:59:57.403Z,62.66
2019-02-27T14:02:28.790Z,62.49
2019-02-27T14:05:00.779Z,62.32
2019-02-27T14:07:34.050Z,62.40
2019-02-27T14:10:08.539Z,63.18
2019-02-27T14:12:39.923Z,62.38
2019-02-27T14:15:13.264Z,62.10
2019-02-27T14:17:44.855Z,63.01
2019-02-27T14:20:18.354Z,62.79
2019-02-27T14:22:49.818Z,63.13
2019-02-27T14:25:28.483Z,63.89
2019-02-27T14:27:56.432Z,66.92
2019-02-27T14:30:39.754Z,68.25
2019-02-27T14:33:11.210Z,68.53
2019-02-27T14:35:43.037Z,67.92
2019-02-27T14:38:14.493Z,68.57
2019-02-27T14:40:45.942Z,69.21
2019-02-27T14:43:17.395Z,68.60
2019-02-27T14:45:50.719Z,68.96
2019-02-27T14:48:22.273Z,69.36
2019-02-27T14:50:53.673Z,69.13
2019-02-27T14:53:26.270Z,69.02
2019-02-27T14:55:57.584Z,68.81
2019-02-27T14:58:28.959Z,69.29
2019-02-27T15:01:00.405Z,68.76
2019-02-27T15:03:33.226Z,68.89
2019-02-27T15:06:04.674Z,68.46
2019-02-27T15:08:36.198Z,69.25
2019-02-27T15:11:07.623Z,69.42
2019-02-27T15:13:39.190Z,69.81
2019-02-27T15:16:10.645Z,69.82
2019-02-27T15:18:42.092Z,69.15
2019-02-27T15:21:13.819Z,69.56
2019-02-27T15:23:45.491Z,69.94
2019-02-27T15:26:17.196Z,68.84
2019-02-27T15:28:48.613Z,69.14
2019-02-27T15:31:21.469Z,68.92
2019-02-27T15:33:54.043Z,69.78
2019-02-27T15:36:29.466Z,69.32
2019-02-27T15:38:58.724Z,69.48
2019-02-27T15:41:30.151Z,70.40
2019-02-27T15:44:01.608Z,69.94
2019-02-27T15:46:33.059Z,69.85
2019-02-27T15:49:04.395Z,69.64
2019-02-27T15:51:35.791Z,70.49
2019-02-27T15:54:07.417Z,70.95
2019-02-27T15:56:41.972Z,70.97
2019-02-27T15:59:13.265Z,70.30
2019-02-27T16:01:44.562Z,70.01
2019-02-27T16:04:17.594Z,71.10
2019-02-27T16:06:51.195Z,70.82
2019-02-27T16:09:22.867Z,70.60
2019-02-27T16:11:54.228Z,70.69
2019-02-27T16:14:25.557Z,70.88
2019-02-27T16:16:57.561Z,71.18
2019-02-27T16:19:30.010Z,70.87
2019-02-27T16:22:01.308Z,70.77
2019-02-27T16:24:32.719Z,71.06
2019-02-27T16:27:04.148Z,70.59
2019-02-27T16:29:35.504Z,71.28
2019-02-27T16:32:06.856Z,70.89
2019-02-27T16:34:38.286Z,70.52
2019-02-27T16:37:09.783Z,71.00
2019-02-27T16:39:42.313Z,70.35
2019-02-27T16:42:14.330Z,70.25
2019-02-27T16:44:45.715Z,69.69
2019-02-27T16:47:19.627Z,69.73
2019-02-27T16:49:50.659Z,69.35
2019-02-27T16:52:21.394Z,70.02
2019-02-27T16:54:52.461Z,70.47
2019-02-27T16:57:24.530Z,70.86
2019-02-27T16:59:56.262Z,70.70
2019-02-27T17:02:27.608Z,71.00
2019-02-27T17:04:59.098Z,71.27
2019-02-27T17:07:30.522Z,71.02
2019-02-27T17:10:01.912Z,71.73
2019-02-27T17:12:34.519Z,71.21
2019-02-27T17:15:05.995Z,71.58
2019-02-27T17:17:37.256Z,71.58
2019-02-27T17:20:17.339Z,71.67
2019-02-27T17:22:48.953Z,70.92
2019-02-27T17:25:21.390Z,71.26
2019-02-27T17:27:53.579Z,71.46
2019-02-27T17:30:26.635Z,71.00
2019-02-27T17:32:58.082Z,71.80
2019-02-27T17:35:29.341Z,71.83
2019-02-27T17:38:00.733Z,71.73
2019-02-27T17:40:36.215Z,71.50
2019-02-27T17:43:06.807Z,71.34
2019-02-27T17:45:39.191Z,71.90
2019-02-27T17:48:12.333Z,71.80
2019-02-27T17:50:44.403Z,71.82
2019-02-27T17:53:15.715Z,72.47
2019-02-27T17:55:47.268Z,71.86
2019-02-27T17:58:18.625Z,71.69
2019-02-27T18:00:51.716Z,71.75
2019-02-27T18:03:24.962Z,72.25
2019-02-27T18:05:59.425Z,71.54
2019-02-27T18:08:31.453Z,71.60
2019-02-27T18:11:03.123Z,71.25
2019-02-27T18:13:36.370Z,71.64
2019-02-27T18:16:07.911Z,72.49
2019-02-27T18:18:43.334Z,71.90
2019-02-27T18:21:12.492Z,72.40
2019-02-27T18:23:43.943Z,72.23
2019-02-27T18:26:16.379Z,72.23
2019-02-27T18:28:49.390Z,72.65
2019-02-27T18:31:20.859Z,72.54
2019-02-27T18:33:52.392Z,72.75
2019-02-27T18:36:23.745Z,72.91
2019-02-27T18:38:55.189Z,72.50
2019-02-27T18:41:26.648Z,72.51
2019-02-27T18:43:57.969Z,72.46
2019-02-27T18:46:29.446Z,72.43
2019-02-27T18:49:00.809Z,72.50
2019-02-27T18:51:33.243Z,72.41
2019-02-27T18:54:06.533Z,73.26
2019-02-27T18:56:40.371Z,73.61
2019-02-27T18:59:11.002Z,73.23
2019-02-27T19:01:45.105Z,73.66
2019-02-27T19:04:15.561Z,73.45
2019-02-27T19:06:47.026Z,73.86
2019-02-27T19:09:18.404Z,74.11
2019-02-27T19:11:50.945Z,74.04
2019-02-27T19:14:25.335Z,74.31
2019-02-27T19:16:56.780Z,74.94
2019-02-27T19:19:28.091Z,74.91
2019-02-27T19:21:59.429Z,75.43
2019-02-27T19:24:32.570Z,74.68
2019-02-27T19:27:04.233Z,75.38
2019-02-27T19:29:36.912Z,75.46
2019-02-27T19:32:08.351Z,74.80
2019-02-27T19:34:41.490Z,74.78
2019-02-27T19:37:13.076Z,75.25
2019-02-27T19:39:44.425Z,75.21
2019-02-27T19:42:16.271Z,75.18
2019-02-27T19:44:46.956Z,75.59
2019-02-27T19:47:18.567Z,76.04
2019-02-27T19:49:52.098Z,76.55
2019-02-27T19:52:26.852Z,76.40
2019-02-27T19:54:58.251Z,77.03
2019-02-27T19:57:29.717Z,77.45
2019-02-27T20:00:01.059Z,76.39
2019-02-27T20:02:32.706Z,77.36
2019-02-27T20:05:04.390Z,77.07
2019-02-27T20:07:36.496Z,76.85
2019-02-27T20:10:13.647Z,76.96
2019-02-27T20:12:47.821Z,76.61
2019-02-27T20:15:20.883Z,75.99
2019-02-27T20:17:52.215Z,76.50
2019-02-27T20:20:23.821Z,76.36
2019-02-27T20:22:55.542Z,76.72
2019-02-27T20:25:29.088Z,75.99
2019-02-27T20:28:00.530Z,76.56
2019-02-27T20:30:31.854Z,76.68
2019-02-27T20:33:03.328Z,76.54
2019-02-27T20:35:34.883Z,76.70
2019-02-27T20:38:06.330Z,75.75
2019-02-27T20:40:37.648Z,77.58
2019-02-27T20:43:08.972Z,76.73
2019-02-27T20:45:42.945Z,77.56
2019-02-27T20:48:13.374Z,77.13
2019-02-27T20:50:47.678Z,77.10
2019-02-27T20:53:20.997Z,77.46
2019-02-27T20:55:52.023Z,76.61
2019-02-27T20:58:23.450Z,77.26
2019-02-27T21:00:55.668Z,76.67
2019-02-27T21:03:27.999Z,76.75
2019-02-27T21:05:59.708Z,76.32
2019-02-27T21:08:33.340Z,75.94
2019-02-27T21:11:04.192Z,76.13
2019-02-27T21:13:35.669Z,76.06
2019-02-27T21:16:09.362Z,75.08
2019-02-27T21:18:40.089Z,75.80
2019-02-27T21:21:11.519Z,75.46
2019-02-27T21:23:42.934Z,75.63
2019-02-27T21:26:14.302Z,74.74
2019-02-27T21:28:45.788Z,74.93
2019-02-27T21:31:17.148Z,75.08
2019-02-27T21:33:48.566Z,75.17
2019-02-27T21:36:20.024Z,75.80
2019-02-27T21:38:51.541Z,75.13
2019-02-27T21:41:23.045Z,75.45
2019-02-27T21:43:56.590Z,75.54
2019-02-27T21:46:28.648Z,76.24
2019-02-27T21:48:59.997Z,75.58
2019-02-27T21:51:31.399Z,75.12
2019-02-27T21:54:03.966Z,75.79
2019-02-27T21:56:35.895Z,75.37
2019-02-27T21:59:07.242Z,75.58
2019-02-27T22:01:38.611Z,76.19
2019-02-27T22:04:10.926Z,76.44
2019-02-27T22:06:42.454Z,76.56
2019-02-27T22:09:14.538Z,76.14
2019-02-27T22:11:45.963Z,76.50
2019-02-27T22:14:17.779Z,76.86
2019-02-27T22:16:49.395Z,76.29
2019-02-27T22:19:20.833Z,76.64
2019-02-27T22:21:52.277Z,77.79
2019-02-27T22:24:24.532Z,77.19
2019-02-27T22:26:55.858Z,77.02
2019-02-27T22:29:28.543Z,77.21
2019-02-27T22:32:00.110Z,77.54
2019-02-27T22:34:31.566Z,77.09
2019-02-27T22:37:03.035Z,77.35
2019-02-27T22:39:34.464Z,77.36
2019-02-27T22:42:05.788Z,77.40
2019-02-27T22:44:37.080Z,76.44
2019-02-27T22:47:08.502Z,76.03
2019-02-27T22:49:39.851Z,76.41
2019-02-27T22:52:11.203Z,76.96
2019-02-27T22:54:42.662Z,77.57
2019-02-27T22:57:13.971Z,76.99
2019-02-27T22:59:45.567Z,76.90
2019-02-27T23:02:16.996Z,77.29
2019-02-27T23:04:48.341Z,77.02
2019-02-27T23:07:21.242Z,77.04
2019-02-27T23:09:53.001Z,76.97
2019-02-27T23:12:24.252Z,77.14
2019-02-27T23:14:55.631Z,77.28
2019-02-27T23:17:27.034Z,76.45
2019-02-27T23:19:58.516Z,76.20
2019-02-27T23:22:29.880Z,77.03
2019-02-27T23:25:01.283Z,76.88
2019-02-27T23:27:32.737Z,77.06
2019-02-27T23:30:05.683Z,77.46
2019-02-27T23:32:37.058Z,77.35
2019-02-27T23:35:08.520Z,77.35
2019-02-27T23:37:39.852Z,76.91
2019-02-27T23:40:11.151Z,77.07
2019-02-27T23:42:42.519Z,76.93
2019-02-27T23:45:13.912Z,76.93
2019-02-27T23:47:45.360Z,77.19
2019-02-27T23:50:16.820Z,77.26
2019-02-27T23:52:48.141Z,77.98
2019-02-27T23:55:19.609Z,78.00
2019-02-27T23:57:51.063Z,78.08
